createdAt,value
2018-10-11T00:01:23.487Z,20.57
2018-10-11T00:03:52.987Z,20.20
2018-10-11T00:06:22.531Z,22.23
2018-10-11T00:08:51.901Z,20.67
2018-10-11T00:11:21.268Z,19.13
2018-10-11T00:13:50.571Z,22.27
2018-10-11T00:16:19.855Z,23.53
2018-10-11T00:18:49.240Z,22.00
2018-10-11T00:21:19.230Z,23.37
2018-10-11T00:23:48.776Z,20.77
2018-10-11T00:26:18.147Z,24.60
2018-10-11T00:28:47.531Z,21.07
2018-10-11T00:31:16.946Z,25.60
2018-10-11T00:33:46.319Z,22.33
2018-10-11T00:36:16.122Z,22.67
2018-10-11T00:38:45.590Z,22.80
2018-10-11T00:41:15.228Z,27.40
2018-10-11T00:43:44.643Z,24.50
2018-10-11T00:46:14.464Z,24.67
2018-10-11T00:48:43.819Z,22.50
2018-10-11T00:51:13.262Z,28.33
2018-10-11T00:53:42.711Z,26.93
2018-10-11T00:56:12.137Z,21.67
2018-10-11T00:58:41.653Z,22.10
2018-10-11T01:01:10.856Z,25.70
2018-10-11T01:03:40.896Z,28.07
2018-10-11T01:06:10.768Z,25.00
2018-10-11T01:08:40.317Z,26.00
2018-10-11T01:11:09.944Z,24.90
2018-10-11T01:13:39.898Z,27.40
2018-10-11T01:16:09.224Z,25.40
2018-10-11T01:18:38.730Z,28.40
2018-10-11T01:21:08.734Z,25.80
2018-10-11T01:23:38.611Z,25.53
2018-10-11T01:26:08.156Z,28.33
2018-10-11T01:28:38.029Z,24.67
2018-10-11T01:31:12.780Z,25.83
2018-10-11T01:33:42.088Z,25.90
2018-10-11T01:36:11.402Z,28.87
2018-10-11T01:38:40.807Z,25.87
2018-10-11T01:41:10.208Z,26.40
2018-10-11T01:43:39.717Z,26.20
2018-10-11T01:46:09.162Z,26.00
2018-10-11T01:48:38.590Z,27.93
2018-10-11T01:51:07.808Z,28.17
2018-10-11T01:53:37.612Z,26.30
2018-10-11T01:56:07.215Z,24.20
2018-10-11T01:58:36.470Z,31.17
2018-10-11T02:01:06.972Z,23.60
2018-10-11T02:03:36.238Z,28.00
2018-10-11T02:06:05.568Z,24.57
2018-10-11T02:08:34.842Z,27.57
2018-10-11T02:11:04.128Z,25.60
2018-10-11T02:13:33.543Z,26.53
2018-10-11T02:16:02.757Z,29.77
2018-10-11T02:18:32.239Z,26.87
2018-10-11T02:21:01.820Z,25.83
2018-10-11T02:23:31.286Z,26.67
2018-10-11T02:26:00.612Z,25.80
2018-10-11T02:28:29.898Z,25.40
2018-10-11T02:30:59.332Z,27.07
2018-10-11T02:33:28.738Z,27.13
2018-10-11T02:35:58.221Z,25.50
2018-10-11T02:38:27.589Z,26.77
2018-10-11T02:40:57.114Z,29.00
2018-10-11T02:43:27.057Z,25.77
2018-10-11T02:45:57.312Z,27.30
2018-10-11T02:48:26.820Z,26.70
2018-10-11T02:50:56.340Z,26.57
2018-10-11T02:53:25.702Z,28.07
2018-10-11T02:55:54.976Z,25.60
2018-10-11T02:58:35.285Z,27.37
2018-10-11T03:01:04.873Z,25.90
2018-10-11T03:03:34.269Z,28.43
2018-10-11T03:06:04.284Z,27.40
2018-10-11T03:08:33.767Z,27.60
2018-10-11T03:11:03.051Z,26.70
2018-10-11T03:13:32.611Z,27.20
2018-10-11T03:16:02.043Z,27.77
2018-10-11T03:18:31.563Z,24.70
2018-10-11T03:21:01.029Z,28.33
2018-10-11T03:23:30.744Z,27.23
2018-10-11T03:26:00.363Z,28.27
2018-10-11T03:28:29.830Z,28.43
2018-10-11T03:30:59.156Z,25.70
2018-10-11T03:33:28.444Z,24.07
2018-10-11T03:35:57.771Z,26.10
2018-10-11T03:38:27.261Z,26.37
2018-10-11T03:40:56.734Z,25.80
2018-10-11T03:43:25.899Z,23.13
2018-10-11T03:45:55.151Z,28.20
2018-10-11T03:48:24.439Z,26.80
2018-10-11T03:50:53.884Z,26.30
2018-10-11T03:53:23.173Z,24.73
2018-10-11T03:55:52.371Z,26.23
2018-10-11T03:58:21.663Z,29.43
2018-10-11T04:00:50.879Z,29.40
2018-10-11T04:03:20.221Z,25.17
2018-10-11T04:05:49.764Z,26.80
2018-10-11T04:08:19.135Z,27.10
2018-10-11T04:10:48.511Z,28.77
2018-10-11T04:13:17.779Z,29.77
2018-10-11T04:15:47.213Z,30.67
2018-10-11T04:18:16.701Z,32.23
2018-10-11T04:20:46.014Z,27.40
2018-10-11T04:23:19.768Z,28.80
2018-10-11T04:25:49.052Z,29.70
2018-10-11T04:28:18.501Z,30.93
2018-10-11T04:30:47.874Z,27.20
2018-10-11T04:33:17.250Z,26.50
2018-10-11T04:35:46.517Z,27.33
2018-10-11T04:38:16.513Z,28.90
2018-10-11T04:40:45.788Z,28.77
2018-10-11T04:43:15.368Z,26.43
2018-10-11T04:45:44.880Z,32.83
2018-10-11T04:48:14.318Z,29.07
2018-10-11T04:50:44.731Z,29.33
2018-10-11T04:53:14.987Z,27.93
2018-10-11T04:55:45.332Z,30.50
2018-10-11T04:58:14.617Z,30.30
2018-10-11T05:00:44.303Z,30.40
2018-10-11T05:03:13.930Z,29.53
2018-10-11T05:05:43.786Z,28.13
2018-10-11T05:08:14.179Z,29.60
2018-10-11T05:10:44.420Z,31.07
2018-10-11T05:13:14.719Z,29.43
2018-10-11T05:15:44.627Z,27.73
2018-10-11T05:18:17.056Z,28.87
2018-10-11T05:20:46.371Z,27.33
2018-10-11T05:23:15.676Z,30.53
2018-10-11T05:25:44.889Z,31.73
2018-10-11T05:28:14.317Z,31.20
2018-10-11T05:30:45.656Z,30.13
2018-10-11T05:33:15.324Z,31.90
2018-10-11T05:35:44.770Z,32.67
2018-10-11T05:38:14.178Z,33.83
2018-10-11T05:40:44.031Z,32.73
2018-10-11T05:43:14.467Z,37.33
2018-10-11T05:45:48.847Z,36.23
2018-10-11T05:48:18.568Z,36.90
2018-10-11T05:50:48.052Z,33.97
2018-10-11T05:53:17.624Z,34.70
2018-10-11T05:55:47.540Z,32.23
2018-10-11T05:58:17.475Z,33.73
2018-10-11T06:00:47.929Z,36.80
2018-10-11T06:03:18.203Z,36.90
2018-10-11T06:05:47.791Z,37.43
2018-10-11T06:08:17.931Z,35.43
2018-10-11T06:10:48.709Z,34.70
2018-10-11T06:13:18.091Z,39.57
2018-10-11T06:15:47.647Z,33.37
2018-10-11T06:18:17.645Z,38.27
2018-10-11T06:20:47.619Z,33.70
2018-10-11T06:23:17.359Z,36.00
2018-10-11T06:25:47.163Z,37.17
2018-10-11T06:28:17.057Z,38.93
2018-10-11T06:30:47.309Z,36.70
2018-10-11T06:33:17.867Z,34.70
2018-10-11T06:35:48.669Z,36.30
2018-10-11T06:38:18.344Z,37.13
2018-10-11T06:40:47.953Z,35.47
2018-10-11T06:43:17.823Z,33.40
2018-10-11T06:45:47.895Z,37.00
2018-10-11T06:48:18.687Z,35.67
2018-10-11T06:50:48.455Z,36.53
2018-10-11T06:53:18.103Z,31.43
2018-10-11T06:55:47.915Z,31.37
2018-10-11T06:58:17.819Z,31.57
2018-10-11T07:00:47.763Z,34.90
2018-10-11T07:03:17.457Z,36.87
2018-10-11T07:05:47.207Z,33.60
2018-10-11T07:08:16.977Z,32.03
2018-10-11T07:10:46.595Z,32.10
2018-10-11T07:13:16.581Z,31.87
2018-10-11T07:15:46.849Z,30.90
2018-10-11T07:18:16.570Z,34.33
2018-10-11T07:20:46.303Z,30.03
2018-10-11T07:23:16.009Z,31.30
2018-10-11T07:25:45.746Z,31.37
2018-10-11T07:28:15.227Z,30.80
2018-10-11T07:30:45.227Z,32.77
2018-10-11T07:33:15.118Z,30.10
2018-10-11T07:35:45.363Z,30.83
2018-10-11T07:38:15.135Z,34.60
2018-10-11T07:40:45.136Z,31.27
2018-10-11T07:43:15.110Z,33.23
2018-10-11T07:45:45.242Z,32.13
2018-10-11T07:48:15.519Z,36.03
2018-10-11T07:50:45.458Z,33.20
2018-10-11T07:53:15.260Z,34.93
2018-10-11T07:55:45.260Z,29.17
2018-10-11T07:58:15.162Z,29.47
2018-10-11T08:00:45.386Z,37.37
2018-10-11T08:03:15.896Z,29.57
2018-10-11T08:05:46.635Z,29.40
2018-10-11T08:08:16.656Z,28.73
2018-10-11T08:10:46.658Z,29.67
2018-10-11T08:13:16.828Z,28.50
2018-10-11T08:15:46.612Z,29.90
2018-10-11T08:18:16.228Z,27.70
2018-10-11T08:20:45.930Z,27.80
2018-10-11T08:23:15.657Z,28.60
2018-10-11T08:25:45.840Z,28.23
2018-10-11T08:28:15.976Z,27.80
2018-10-11T08:30:45.663Z,29.23
2018-10-11T08:33:16.221Z,26.07
2018-10-11T08:35:46.724Z,28.93
2018-10-11T08:38:17.014Z,30.20
2018-10-11T08:40:47.054Z,30.07
2018-10-11T08:43:16.781Z,26.80
2018-10-11T08:45:47.119Z,32.30
2018-10-11T08:48:17.604Z,29.57
2018-10-11T08:50:47.802Z,26.60
2018-10-11T08:53:18.546Z,29.47
2018-10-11T08:55:49.196Z,28.40
2018-10-11T08:58:18.633Z,29.17
2018-10-11T09:00:49.609Z,27.00
2018-10-11T09:03:19.239Z,25.63
2018-10-11T09:05:49.037Z,32.47
2018-10-11T09:08:19.082Z,33.77
2018-10-11T09:10:49.055Z,27.07
2018-10-11T09:13:18.708Z,28.73
2018-10-11T09:15:48.307Z,33.03
2018-10-11T09:18:18.132Z,27.60
2018-10-11T09:20:49.135Z,28.87
2018-10-11T09:23:19.210Z,24.93
2018-10-11T09:25:48.509Z,27.47
2018-10-11T09:28:18.032Z,23.80
2018-10-11T09:30:49.350Z,26.57
2018-10-11T09:33:18.867Z,25.70
2018-10-11T09:35:48.496Z,26.57
2018-10-11T09:38:18.044Z,23.17
2018-10-11T09:40:47.527Z,25.17
2018-10-11T09:43:17.858Z,21.13
2018-10-11T09:45:47.949Z,20.73
2018-10-11T09:48:18.029Z,19.13
2018-10-11T09:50:47.933Z,18.37
2018-10-11T09:53:18.209Z,22.03
2018-10-11T09:55:48.051Z,21.87
2018-10-11T09:58:18.087Z,21.30
2018-10-11T10:00:53.197Z,20.07
2018-10-11T10:03:23.254Z,19.13
2018-10-11T10:05:52.872Z,20.17
2018-10-11T10:08:22.987Z,19.83
2018-10-11T10:10:52.970Z,19.93
2018-10-11T10:13:23.042Z,22.87
2018-10-11T10:15:52.919Z,17.43
2018-10-11T10:18:22.741Z,16.50
2018-10-11T10:20:52.924Z,16.23
2018-10-11T10:23:23.720Z,19.20
2018-10-11T10:25:53.220Z,17.93
2018-10-11T10:28:23.540Z,18.10
2018-10-11T10:30:55.032Z,24.90
2018-10-11T10:33:26.183Z,17.93
2018-10-11T10:35:56.054Z,16.90
2018-10-11T10:38:25.780Z,19.47
2018-10-11T10:40:55.526Z,18.93
2018-10-11T10:43:25.344Z,18.60
2018-10-11T10:45:55.308Z,17.60
2018-10-11T10:48:25.142Z,19.43
2018-10-11T10:50:55.118Z,18.83
2018-10-11T10:53:25.479Z,19.43
2018-10-11T10:55:55.594Z,19.63
2018-10-11T10:58:25.480Z,16.70
2018-10-11T11:00:55.466Z,16.50
2018-10-11T11:03:25.514Z,18.47
2018-10-11T11:05:55.551Z,19.20
2018-10-11T11:08:25.304Z,15.70
2018-10-11T11:10:54.895Z,17.70
2018-10-11T11:13:24.739Z,16.60
2018-10-11T11:15:54.490Z,13.63
2018-10-11T11:18:24.263Z,15.57
2018-10-11T11:20:54.011Z,16.13
2018-10-11T11:23:23.478Z,15.10
2018-10-11T11:25:53.075Z,14.83
2018-10-11T11:28:22.886Z,13.73
2018-10-11T11:30:52.959Z,14.50
2018-10-11T11:33:23.015Z,14.80
2018-10-11T11:35:52.782Z,14.03
2018-10-11T11:38:22.829Z,13.80
2018-10-11T11:40:52.804Z,14.17
2018-10-11T11:43:22.547Z,13.10
2018-10-11T11:45:52.533Z,16.07
2018-10-11T11:48:22.769Z,13.67
2018-10-11T11:50:52.887Z,14.40
2018-10-11T11:53:22.873Z,13.73
2018-10-11T11:55:55.435Z,13.43
2018-10-11T11:58:25.587Z,13.73
2018-10-11T12:00:55.431Z,14.20
2018-10-11T12:03:25.519Z,14.40
2018-10-11T12:05:55.409Z,14.37
2018-10-11T12:08:25.473Z,13.70
2018-10-11T12:10:55.472Z,13.73
2018-10-11T12:13:25.320Z,14.07
2018-10-11T12:15:55.551Z,15.13
2018-10-11T12:18:26.614Z,16.00
2018-10-11T12:20:56.639Z,13.33
2018-10-11T12:23:26.312Z,12.67
2018-10-11T12:25:56.067Z,12.73
2018-10-11T12:28:25.868Z,13.40
2018-10-11T12:30:56.343Z,13.90
2018-10-11T12:33:26.414Z,14.03
2018-10-11T12:35:57.419Z,14.13
2018-10-11T12:38:27.280Z,12.03
2018-10-11T12:40:57.575Z,12.17
2018-10-11T12:43:27.730Z,16.57
2018-10-11T12:45:57.734Z,14.90
2018-10-11T12:48:27.861Z,12.67
2018-10-11T12:50:58.735Z,12.83
2018-10-11T12:53:28.450Z,13.17
2018-10-11T12:55:57.853Z,14.80
2018-10-11T12:58:27.920Z,15.20
2018-10-11T13:00:58.311Z,13.13
2018-10-11T13:03:28.133Z,13.47
2018-10-11T13:05:57.945Z,12.77
2018-10-11T13:08:28.364Z,14.53
2018-10-11T13:10:58.154Z,11.80
2018-10-11T13:13:28.064Z,13.33
2018-10-11T13:16:00.495Z,14.17
2018-10-11T13:18:27.932Z,14.73
2018-10-11T13:20:57.737Z,12.50
2018-10-11T13:23:28.548Z,13.17
2018-10-11T13:25:58.299Z,13.40
2018-10-11T13:28:28.252Z,13.30
2018-10-11T13:30:58.045Z,12.60
2018-10-11T13:33:27.955Z,15.47
2018-10-11T13:35:57.825Z,12.10
2018-10-11T13:38:28.020Z,14.80
2018-10-11T13:41:02.269Z,14.57
2018-10-11T13:43:28.742Z,13.00
2018-10-11T13:46:01.203Z,11.93
2018-10-11T13:48:28.446Z,12.63
2018-10-11T13:50:58.242Z,13.60
2018-10-11T13:53:28.109Z,12.63
2018-10-11T13:55:58.882Z,12.03
2018-10-11T13:58:27.634Z,14.33
2018-10-11T14:00:57.673Z,13.47
2018-10-11T14:03:28.091Z,12.27
2018-10-11T14:05:58.746Z,13.33
2018-10-11T14:08:28.321Z,11.60
2018-10-11T14:10:58.211Z,12.77
2018-10-11T14:13:28.072Z,12.80
2018-10-11T14:15:58.393Z,11.70
2018-10-11T14:18:28.063Z,11.70
2018-10-11T14:20:57.726Z,12.13
2018-10-11T14:23:27.827Z,12.20
2018-10-11T14:25:57.998Z,12.77
2018-10-11T14:28:28.693Z,11.90
2018-10-11T14:31:00.575Z,11.17
2018-10-11T14:33:30.170Z,13.20
2018-10-11T14:36:00.127Z,11.10
2018-10-11T14:38:30.111Z,12.27
2018-10-11T14:41:00.489Z,11.83
2018-10-11T14:43:30.697Z,11.80
2018-10-11T14:46:00.737Z,14.40
2018-10-11T14:48:30.915Z,12.80
2018-10-11T14:51:00.866Z,12.80
2018-10-11T14:53:30.551Z,12.13
2018-10-11T14:56:00.531Z,11.37
2018-10-11T14:58:30.932Z,11.87
2018-10-11T15:01:00.823Z,11.93
2018-10-11T15:03:30.567Z,11.40
2018-10-11T15:06:01.383Z,13.37
2018-10-11T15:08:30.882Z,11.50
2018-10-11T15:11:00.524Z,15.63
2018-10-11T15:13:30.462Z,11.60
2018-10-11T15:16:00.493Z,11.57
2018-10-11T15:18:30.355Z,10.97
2018-10-11T15:21:00.379Z,11.33
2018-10-11T15:23:30.090Z,12.27
2018-10-11T15:25:59.763Z,10.83
2018-10-11T15:28:30.410Z,13.90
2018-10-11T15:31:00.511Z,11.67
2018-10-11T15:33:30.262Z,12.80
2018-10-11T15:36:00.511Z,10.83
2018-10-11T15:38:30.451Z,12.23
2018-10-11T15:41:00.487Z,14.70
2018-10-11T15:43:30.385Z,13.47
2018-10-11T15:46:00.247Z,12.87
2018-10-11T15:48:29.989Z,11.53
2018-10-11T15:50:59.817Z,13.60
2018-10-11T15:53:29.460Z,15.77
2018-10-11T15:55:59.345Z,12.57
2018-10-11T15:58:29.108Z,13.03
2018-10-11T16:00:59.053Z,10.93
2018-10-11T16:03:28.549Z,10.97
2018-10-11T16:05:58.149Z,13.80
2018-10-11T16:08:28.065Z,11.30
2018-10-11T16:10:58.010Z,11.93
2018-10-11T16:13:28.102Z,11.37
2018-10-11T16:15:58.075Z,11.60
2018-10-11T16:18:28.057Z,15.47
2018-10-11T16:20:58.013Z,12.47
2018-10-11T16:23:27.926Z,10.53
2018-10-11T16:25:57.981Z,12.47
2018-10-11T16:28:27.825Z,11.73
2018-10-11T16:30:57.801Z,14.43
2018-10-11T16:33:27.796Z,11.87
2018-10-11T16:35:57.505Z,14.20
2018-10-11T16:38:27.027Z,12.20
2018-10-11T16:40:56.748Z,11.37
2018-10-11T16:43:26.063Z,16.17
2018-10-11T16:45:55.256Z,12.60
2018-10-11T16:48:24.837Z,13.30
2018-10-11T16:50:54.086Z,12.93
2018-10-11T16:53:23.392Z,12.77
2018-10-11T16:55:52.735Z,15.70
2018-10-11T16:58:22.153Z,15.73
2018-10-11T17:00:52.037Z,16.03
2018-10-11T17:03:21.878Z,13.87
2018-10-11T17:05:51.098Z,12.57
2018-10-11T17:08:20.437Z,12.43
2018-10-11T17:10:49.702Z,15.93
2018-10-11T17:13:18.815Z,12.00
2018-10-11T17:15:48.370Z,11.63
2018-10-11T17:18:17.633Z,11.77
2018-10-11T17:20:47.036Z,12.73
2018-10-11T17:23:16.314Z,10.50
2018-10-11T17:25:45.732Z,12.33
2018-10-11T17:28:15.110Z,10.63
2018-10-11T17:30:44.363Z,12.90
2018-10-11T17:33:13.798Z,13.50
2018-10-11T17:35:43.348Z,12.90
2018-10-11T17:38:12.730Z,14.03
2018-10-11T17:40:42.231Z,13.00
2018-10-11T17:43:11.606Z,13.83
2018-10-11T17:45:40.984Z,13.03
2018-10-11T17:48:10.648Z,14.27
2018-10-11T17:50:40.355Z,15.10
2018-10-11T17:53:10.490Z,13.10
2018-10-11T17:55:39.952Z,12.43
2018-10-11T17:58:09.353Z,12.87
2018-10-11T18:00:39.466Z,13.33
2018-10-11T18:03:08.825Z,16.50
2018-10-11T18:05:38.098Z,12.57
2018-10-11T18:08:08.367Z,15.43
2018-10-11T18:10:37.718Z,13.70
2018-10-11T18:13:07.219Z,12.50
2018-10-11T18:15:36.786Z,16.53
2018-10-11T18:18:06.458Z,12.97
2018-10-11T18:20:35.802Z,12.33
2018-10-11T18:23:05.378Z,14.23
2018-10-11T18:25:34.568Z,15.20
2018-10-11T18:28:04.310Z,14.43
2018-10-11T18:30:33.808Z,16.57
2018-10-11T18:33:03.424Z,14.43
2018-10-11T18:35:32.810Z,14.00
2018-10-11T18:38:02.207Z,14.80
2018-10-11T18:40:31.659Z,18.00
2018-10-11T18:43:01.093Z,18.20
2018-10-11T18:45:30.559Z,29.57
2018-10-11T18:48:00.001Z,34.80
2018-10-11T18:50:29.436Z,28.37
2018-10-11T18:52:58.748Z,18.83
2018-10-11T18:55:28.243Z,19.23
2018-10-11T18:57:57.822Z,15.30
2018-10-11T19:00:27.259Z,15.87
2018-10-11T19:02:56.868Z,13.60
2018-10-11T19:05:26.339Z,13.90
2018-10-11T19:07:55.727Z,14.00
2018-10-11T19:10:25.356Z,14.00
2018-10-11T19:12:55.015Z,16.17
2018-10-11T19:15:24.392Z,16.87
2018-10-11T19:17:53.709Z,14.53
2018-10-11T19:20:22.973Z,16.97
2018-10-11T19:22:52.511Z,14.37
2018-10-11T19:25:21.926Z,17.00
2018-10-11T19:27:51.581Z,13.60
2018-10-11T19:30:21.073Z,14.03
2018-10-11T19:32:50.691Z,14.77
2018-10-11T19:35:20.213Z,15.83
2018-10-11T19:37:49.459Z,17.53
2018-10-11T19:40:18.926Z,19.90
2018-10-11T19:42:48.241Z,16.33
2018-10-11T19:45:20.367Z,20.57
2018-10-11T19:47:49.984Z,16.50
2018-10-11T19:50:19.628Z,19.23
2018-10-11T19:52:49.245Z,15.63
2018-10-11T19:55:18.539Z,19.37
2018-10-11T19:57:47.817Z,18.73
2018-10-11T20:00:17.599Z,17.07
2018-10-11T20:02:47.207Z,15.27
2018-10-11T20:05:16.699Z,18.63
2018-10-11T20:07:45.939Z,17.60
2018-10-11T20:10:15.468Z,17.13
2018-10-11T20:12:44.823Z,14.23
2018-10-11T20:15:14.199Z,14.10
2018-10-11T20:17:43.475Z,14.83
2018-10-11T20:20:12.938Z,18.93
2018-10-11T20:22:42.225Z,18.83
2018-10-11T20:25:12.381Z,16.60
2018-10-11T20:27:41.981Z,18.07
2018-10-11T20:30:11.634Z,20.73
2018-10-11T20:32:41.292Z,18.43
2018-10-11T20:35:10.723Z,18.93
2018-10-11T20:37:40.377Z,16.87
2018-10-11T20:40:09.646Z,14.40
2018-10-11T20:42:39.239Z,19.53
2018-10-11T20:45:08.715Z,16.77
2018-10-11T20:47:37.942Z,18.07
2018-10-11T20:50:07.632Z,16.87
2018-10-11T20:52:37.341Z,17.53
2018-10-11T20:55:07.297Z,16.40
2018-10-11T20:57:36.815Z,18.87
2018-10-11T21:00:06.833Z,20.77
2018-10-11T21:02:36.558Z,19.10
2018-10-11T21:05:06.237Z,18.80
2018-10-11T21:07:35.541Z,17.90
2018-10-11T21:10:05.161Z,15.87
2018-10-11T21:12:34.633Z,15.60
2018-10-11T21:15:04.112Z,17.00
2018-10-11T21:17:33.556Z,19.77
2018-10-11T21:20:03.138Z,15.20
2018-10-11T21:22:32.874Z,15.00
2018-10-11T21:25:02.367Z,15.93
2018-10-11T21:27:31.561Z,15.67
2018-10-11T21:30:00.773Z,16.10
2018-10-11T21:32:30.261Z,17.10
2018-10-11T21:34:59.831Z,16.43
2018-10-11T21:37:29.007Z,16.87
2018-10-11T21:39:58.487Z,15.63
2018-10-11T21:42:27.819Z,19.80
2018-10-11T21:44:57.265Z,15.57
2018-10-11T21:47:26.813Z,15.63
2018-10-11T21:49:57.343Z,23.63
2018-10-11T21:52:27.789Z,15.33
2018-10-11T21:54:57.168Z,18.47
2018-10-11T21:57:26.718Z,14.83
2018-10-11T21:59:56.188Z,17.40
2018-10-11T22:02:25.903Z,13.50
2018-10-11T22:04:55.379Z,13.03
2018-10-11T22:07:24.699Z,14.10
2018-10-11T22:09:54.069Z,15.43
2018-10-11T22:12:23.681Z,13.97
2018-10-11T22:14:53.394Z,14.23
2018-10-11T22:17:22.708Z,12.90
2018-10-11T22:19:52.325Z,14.97
2018-10-11T22:22:22.001Z,17.50
2018-10-11T22:24:51.565Z,16.13
2018-10-11T22:27:20.942Z,15.73
2018-10-11T22:29:50.237Z,18.57
2018-10-11T22:32:19.823Z,16.00
2018-10-11T22:34:49.323Z,16.13
2018-10-11T22:37:18.873Z,15.53
2018-10-11T22:39:49.265Z,16.07
2018-10-11T22:42:18.813Z,15.17
2018-10-11T22:44:48.173Z,14.53
2018-10-11T22:47:17.731Z,14.73
2018-10-11T22:49:47.115Z,14.03
2018-10-11T22:52:16.360Z,17.03
2018-10-11T22:54:46.059Z,14.07
2018-10-11T22:57:15.551Z,16.03
2018-10-11T22:59:45.215Z,15.93
2018-10-11T23:02:14.629Z,14.00
2018-10-11T23:04:44.097Z,17.47
2018-10-11T23:07:13.393Z,15.57
2018-10-11T23:09:42.773Z,15.37
2018-10-11T23:12:13.057Z,15.47
2018-10-11T23:14:43.736Z,16.00
2018-10-11T23:17:13.288Z,14.90
2018-10-11T23:19:42.991Z,13.70
2018-10-11T23:22:12.305Z,15.97
2018-10-11T23:24:41.581Z,15.33
2018-10-11T23:27:11.142Z,14.80
2018-10-11T23:29:40.777Z,15.63
2018-10-11T23:32:10.143Z,16.93
2018-10-11T23:34:39.684Z,14.60
2018-10-11T23:37:09.237Z,16.03
2018-10-11T23:39:38.885Z,14.77
2018-10-11T23:42:08.162Z,13.90
2018-10-11T23:44:38.007Z,14.20
2018-10-11T23:47:07.355Z,14.67
2018-10-11T23:49:36.961Z,14.43
2018-10-11T23:52:06.711Z,14.37
2018-10-11T23:54:36.390Z,13.87
2018-10-11T23:59:46.290Z,13.70
